createdAt,value
2022-11-29T00:00:45.202Z,4.46
2022-11-29T00:03:12.185Z,4.42
2022-11-29T00:05:38.958Z,4.50
2022-11-29T00:08:05.795Z,4.29
2022-11-29T00:10:36.835Z,4.04
2022-11-29T00:13:04.319Z,4.17
2022-11-29T00:15:34.854Z,4.15
2022-11-29T00:18:01.504Z,4.25
2022-11-29T00:20:28.164Z,4.33
2022-11-29T00:22:54.750Z,4.34
2022-11-29T00:25:21.496Z,4.32
2022-11-29T00:27:48.162Z,4.44
2022-11-29T00:30:14.975Z,4.46
2022-11-29T00:32:41.705Z,4.24
2022-11-29T00:35:09.929Z,4.41
2022-11-29T00:37:36.953Z,4.51
2022-11-29T00:40:04.649Z,4.53
2022-11-29T00:42:31.475Z,4.56
2022-11-29T00:44:58.098Z,4.61
2022-11-29T00:47:24.773Z,4.57
2022-11-29T00:49:51.635Z,4.60
2022-11-29T00:52:18.271Z,4.59
2022-11-29T00:54:45.333Z,4.59
2022-11-29T00:57:12.203Z,4.59
2022-11-29T00:59:38.854Z,4.46
2022-11-29T01:02:05.565Z,4.32
2022-11-29T01:04:32.260Z,4.23
2022-11-29T01:06:58.862Z,4.23
2022-11-29T01:09:25.482Z,4.18
2022-11-29T01:11:52.135Z,4.25
2022-11-29T01:14:18.766Z,4.30
2022-11-29T01:16:45.428Z,4.18
2022-11-29T01:19:12.052Z,4.28
2022-11-29T01:21:38.896Z,4.32
2022-11-29T01:24:05.801Z,4.36
2022-11-29T01:26:32.589Z,4.28
2022-11-29T01:28:59.552Z,4.27
2022-11-29T01:31:29.698Z,4.26
2022-11-29T01:33:59.765Z,4.29
2022-11-29T01:36:27.695Z,4.24
2022-11-29T01:38:54.826Z,4.25
2022-11-29T01:41:27.292Z,4.25
2022-11-29T01:44:26.135Z,4.14
2022-11-29T01:46:54.478Z,3.79
2022-11-29T01:49:29.339Z,3.54
2022-11-29T01:51:58.666Z,3.40
2022-11-29T01:54:25.958Z,3.54
2022-11-29T01:56:53.104Z,3.60
2022-11-29T01:59:23.380Z,3.69
2022-11-29T02:01:50.099Z,3.74
2022-11-29T02:04:18.558Z,3.74
2022-11-29T02:06:45.957Z,3.70
2022-11-29T02:09:20.641Z,3.65
2022-11-29T02:11:47.186Z,3.76
2022-11-29T02:14:32.209Z,3.87
2022-11-29T02:17:20.808Z,3.92
2022-11-29T02:20:28.427Z,3.96
2022-11-29T02:23:21.242Z,3.85
2022-11-29T02:26:18.617Z,3.83
2022-11-29T02:28:52.559Z,3.95
2022-11-29T02:31:36.931Z,4.00
2022-11-29T02:34:06.586Z,4.00
2022-11-29T02:37:06.005Z,4.07
2022-11-29T02:39:42.737Z,4.11
2022-11-29T02:42:55.567Z,4.05
2022-11-29T02:45:31.583Z,3.99
2022-11-29T02:48:17.018Z,3.93
2022-11-29T02:51:04.139Z,3.91
2022-11-29T02:54:07.875Z,3.98
2022-11-29T02:56:43.066Z,3.97
2022-11-29T02:59:20.575Z,3.85
2022-11-29T03:02:16.434Z,3.96
2022-11-29T03:05:22.000Z,3.86
2022-11-29T03:08:06.510Z,3.95
2022-11-29T03:10:48.093Z,4.05
2022-11-29T03:13:25.011Z,4.06
2022-11-29T03:16:15.033Z,3.93
2022-11-29T03:19:31.017Z,3.84
2022-11-29T03:22:03.769Z,3.82
2022-11-29T03:25:02.780Z,3.89
2022-11-29T03:27:43.387Z,3.83
2022-11-29T03:30:13.875Z,3.77
2022-11-29T03:32:55.059Z,3.80
2022-11-29T03:35:55.826Z,3.86
2022-11-29T03:38:25.218Z,3.77
2022-11-29T03:41:02.012Z,3.88
2022-11-29T03:43:43.252Z,3.79
2022-11-29T03:46:21.550Z,3.77
2022-11-29T03:49:02.504Z,3.67
2022-11-29T03:52:15.150Z,3.70
2022-11-29T03:55:21.016Z,3.61
2022-11-29T03:58:13.299Z,3.67
2022-11-29T04:01:15.276Z,3.68
2022-11-29T04:04:14.351Z,3.55
2022-11-29T04:07:02.235Z,3.74
2022-11-29T04:09:56.580Z,3.75
2022-11-29T04:12:32.108Z,3.69
2022-11-29T04:15:22.815Z,3.68
2022-11-29T04:18:17.402Z,3.77
2022-11-29T04:20:59.810Z,3.67
2022-11-29T04:23:55.543Z,3.60
2022-11-29T04:26:40.959Z,3.46
2022-11-29T04:29:07.466Z,3.40
2022-11-29T04:32:02.597Z,3.36
2022-11-29T04:34:50.717Z,3.18
2022-11-29T04:38:03.269Z,3.32
2022-11-29T04:40:55.957Z,3.40
2022-11-29T04:43:34.154Z,3.54
2022-11-29T04:46:16.715Z,3.47
2022-11-29T04:49:05.085Z,3.50
2022-11-29T04:52:00.682Z,3.44
2022-11-29T04:54:51.703Z,3.37
2022-11-29T04:57:47.339Z,3.52
2022-11-29T05:00:19.147Z,3.39
2022-11-29T05:02:48.593Z,3.40
2022-11-29T05:05:21.081Z,3.50
2022-11-29T05:08:06.484Z,3.53
2022-11-29T05:10:59.139Z,3.53
2022-11-29T05:13:45.337Z,3.47
2022-11-29T05:16:24.589Z,3.35
2022-11-29T05:19:16.370Z,3.28
2022-11-29T05:22:06.952Z,3.35
2022-11-29T05:24:56.126Z,3.37
2022-11-29T05:27:35.009Z,3.38
2022-11-29T05:30:05.097Z,3.42
2022-11-29T05:33:16.666Z,3.39
2022-11-29T05:35:53.083Z,3.42
2022-11-29T05:38:35.876Z,3.36
2022-11-29T05:41:20.922Z,3.45
2022-11-29T05:44:06.327Z,3.45
2022-11-29T05:46:52.024Z,3.38
2022-11-29T05:49:33.736Z,3.35
2022-11-29T05:52:24.565Z,3.33
2022-11-29T05:55:09.562Z,3.29
2022-11-29T05:58:06.959Z,3.32
2022-11-29T06:00:44.367Z,3.41
2022-11-29T06:03:22.570Z,3.38
2022-11-29T06:06:12.631Z,3.39
2022-11-29T06:08:44.927Z,3.44
2022-11-29T06:11:22.009Z,3.49
2022-11-29T06:14:13.391Z,3.24
2022-11-29T06:16:56.857Z,3.07
2022-11-29T06:19:44.185Z,3.11
2022-11-29T06:22:29.427Z,3.18
2022-11-29T06:25:27.134Z,3.24
2022-11-29T06:28:12.135Z,3.08
2022-11-29T06:31:00.616Z,3.26
2022-11-29T06:33:33.325Z,3.36
2022-11-29T06:36:15.750Z,3.26
2022-11-29T06:38:42.579Z,3.28
2022-11-29T06:41:17.051Z,3.40
2022-11-29T06:43:44.066Z,3.35
2022-11-29T06:46:37.799Z,3.33
2022-11-29T06:49:46.794Z,3.48
2022-11-29T06:52:32.000Z,3.53
2022-11-29T06:55:04.516Z,3.46
2022-11-29T06:57:40.409Z,3.47
2022-11-29T07:00:11.650Z,3.53
2022-11-29T07:03:16.515Z,3.39
2022-11-29T07:05:43.507Z,3.40
2022-11-29T07:08:18.635Z,3.55
2022-11-29T07:10:46.446Z,3.52
2022-11-29T07:13:13.697Z,3.44
2022-11-29T07:15:55.548Z,3.35
2022-11-29T07:18:34.089Z,3.43
2022-11-29T07:21:28.123Z,3.61
2022-11-29T07:24:13.474Z,3.46
2022-11-29T07:26:59.543Z,3.52
2022-11-29T07:29:45.119Z,3.54
2022-11-29T07:32:47.315Z,3.59
2022-11-29T07:35:45.766Z,3.45
2022-11-29T07:38:50.243Z,3.50
2022-11-29T07:41:27.515Z,3.60
2022-11-29T07:44:12.778Z,3.63
2022-11-29T07:46:39.511Z,3.64
2022-11-29T07:49:09.170Z,3.69
2022-11-29T07:51:35.947Z,3.78
2022-11-29T07:54:02.804Z,3.89
2022-11-29T07:56:29.939Z,3.84
2022-11-29T07:58:56.631Z,3.74
2022-11-29T08:01:23.438Z,3.72
2022-11-29T08:03:50.123Z,3.93
2022-11-29T08:06:16.752Z,4.02
2022-11-29T08:08:44.377Z,3.89
2022-11-29T08:11:12.791Z,3.63
2022-11-29T08:13:39.520Z,3.79
2022-11-29T08:16:06.419Z,3.86
2022-11-29T08:18:33.028Z,3.86
2022-11-29T08:21:05.791Z,4.02
2022-11-29T08:23:32.387Z,4.04
2022-11-29T08:26:03.295Z,3.88
2022-11-29T08:28:30.007Z,4.04
2022-11-29T08:31:01.615Z,4.12
2022-11-29T08:33:28.878Z,4.25
2022-11-29T08:35:56.011Z,3.98
2022-11-29T08:38:23.077Z,4.28
2022-11-29T08:40:49.875Z,4.08
2022-11-29T08:43:16.602Z,4.02
2022-11-29T08:45:43.336Z,4.02
2022-11-29T08:48:10.035Z,4.00
2022-11-29T08:50:36.688Z,4.23
2022-11-29T08:53:21.923Z,4.02
2022-11-29T08:55:48.607Z,4.13
2022-11-29T08:58:16.085Z,4.14
2022-11-29T09:00:45.562Z,3.97
2022-11-29T09:03:31.066Z,3.84
2022-11-29T09:05:57.827Z,4.09
2022-11-29T09:08:24.504Z,3.76
2022-11-29T09:10:51.254Z,3.78
2022-11-29T09:13:18.174Z,4.02
2022-11-29T09:15:44.929Z,3.83
2022-11-29T09:18:11.652Z,3.88
2022-11-29T09:20:38.421Z,4.03
2022-11-29T09:23:05.100Z,4.00
2022-11-29T09:25:31.774Z,3.79
2022-11-29T09:28:01.840Z,3.73
2022-11-29T09:30:31.929Z,3.58
2022-11-29T09:33:05.175Z,3.72
2022-11-29T09:35:33.190Z,3.68
2022-11-29T09:38:00.314Z,3.72
2022-11-29T09:40:32.839Z,4.08
2022-11-29T09:43:22.740Z,3.95
2022-11-29T09:45:59.571Z,4.03
2022-11-29T09:48:40.585Z,4.08
2022-11-29T09:51:38.578Z,4.25
2022-11-29T09:54:45.790Z,4.23
2022-11-29T09:57:14.106Z,4.15
2022-11-29T09:59:45.000Z,3.94
2022-11-29T10:02:28.979Z,4.09
2022-11-29T10:05:28.594Z,4.28
2022-11-29T10:08:26.399Z,4.54
2022-11-29T10:11:22.781Z,4.53
2022-11-29T10:13:55.368Z,4.58
2022-11-29T10:16:41.317Z,4.28
2022-11-29T10:19:19.716Z,4.27
2022-11-29T10:21:57.220Z,4.33
2022-11-29T10:24:26.483Z,4.56
2022-11-29T10:26:53.456Z,4.72
2022-11-29T10:29:20.238Z,4.96
2022-11-29T10:31:49.573Z,4.58
2022-11-29T10:34:22.485Z,4.61
2022-11-29T10:36:59.486Z,4.58
2022-11-29T10:39:49.623Z,4.95
2022-11-29T10:42:36.477Z,4.73
2022-11-29T10:45:05.495Z,4.77
2022-11-29T10:47:32.306Z,4.84
2022-11-29T10:49:59.353Z,4.95
2022-11-29T10:52:25.995Z,5.04
2022-11-29T10:54:57.113Z,5.09
2022-11-29T10:57:23.973Z,5.04
2022-11-29T10:59:59.806Z,4.90
2022-11-29T11:02:27.695Z,4.65
2022-11-29T11:04:54.524Z,4.71
2022-11-29T11:07:36.901Z,4.83
2022-11-29T11:10:26.676Z,4.84
2022-11-29T11:13:18.766Z,5.01
2022-11-29T11:15:45.530Z,4.70
2022-11-29T11:18:21.397Z,4.80
2022-11-29T11:20:57.995Z,4.58
2022-11-29T11:23:28.924Z,4.49
2022-11-29T11:26:02.551Z,4.59
2022-11-29T11:28:53.383Z,4.51
2022-11-29T11:31:35.740Z,4.34
2022-11-29T11:34:35.961Z,4.51
2022-11-29T11:37:14.800Z,4.31
2022-11-29T11:39:42.657Z,4.40
2022-11-29T11:42:34.460Z,4.53
2022-11-29T11:45:05.226Z,4.52
2022-11-29T11:47:35.752Z,4.84
2022-11-29T11:50:02.504Z,4.75
2022-11-29T11:52:39.826Z,4.78
2022-11-29T11:55:34.194Z,5.01
2022-11-29T11:58:12.993Z,5.08
2022-11-29T12:01:06.864Z,4.78
2022-11-29T12:03:53.236Z,4.73
2022-11-29T12:06:32.295Z,5.13
2022-11-29T12:09:08.413Z,4.92
2022-11-29T12:11:44.491Z,4.95
2022-11-29T12:14:20.855Z,4.52
2022-11-29T12:16:50.193Z,4.85
2022-11-29T12:19:30.348Z,4.80
2022-11-29T12:22:04.350Z,4.88
2022-11-29T12:24:35.519Z,5.08
2022-11-29T12:27:05.223Z,5.14
2022-11-29T12:29:34.439Z,5.17
2022-11-29T12:32:56.572Z,5.23
2022-11-29T12:35:26.159Z,5.25
2022-11-29T12:38:27.060Z,5.26
2022-11-29T12:41:13.631Z,5.32
2022-11-29T12:43:52.385Z,5.42
2022-11-29T12:46:27.819Z,5.26
2022-11-29T12:49:12.553Z,5.15
2022-11-29T12:52:03.824Z,5.57
2022-11-29T12:55:00.487Z,5.55
2022-11-29T12:57:38.663Z,5.75
2022-11-29T13:00:36.760Z,5.90
2022-11-29T13:03:26.244Z,5.76
2022-11-29T13:06:08.724Z,5.89
2022-11-29T13:08:35.313Z,5.92
2022-11-29T13:11:20.688Z,5.89
2022-11-29T13:14:13.748Z,5.67
2022-11-29T13:16:59.029Z,5.80
2022-11-29T13:19:43.967Z,5.98
2022-11-29T13:22:25.350Z,6.03
2022-11-29T13:24:57.516Z,6.12
2022-11-29T13:27:29.966Z,6.08
2022-11-29T13:29:59.599Z,5.79
2022-11-29T13:32:37.157Z,5.85
2022-11-29T13:35:16.127Z,5.96
2022-11-29T13:37:54.956Z,5.80
2022-11-29T13:40:25.894Z,5.65
2022-11-29T13:43:19.186Z,5.86
2022-11-29T13:46:05.325Z,6.06
2022-11-29T13:48:46.867Z,6.03
2022-11-29T13:51:28.253Z,5.94
2022-11-29T13:53:56.524Z,5.94
2022-11-29T13:56:47.848Z,5.78
2022-11-29T13:59:27.664Z,5.62
2022-11-29T14:01:54.767Z,5.87
2022-11-29T14:04:27.565Z,5.92
2022-11-29T14:07:13.449Z,5.55
2022-11-29T14:09:45.474Z,5.54
2022-11-29T14:12:26.027Z,5.74
2022-11-29T14:15:00.775Z,5.73
2022-11-29T14:17:36.546Z,5.71
2022-11-29T14:20:30.828Z,5.69
2022-11-29T14:23:06.776Z,5.74
2022-11-29T14:25:54.980Z,5.78
2022-11-29T14:28:21.622Z,5.53
2022-11-29T14:30:57.169Z,5.63
2022-11-29T14:33:48.437Z,5.76
2022-11-29T14:36:15.094Z,5.81
2022-11-29T14:38:51.055Z,5.62
2022-11-29T14:41:48.612Z,5.66
2022-11-29T14:44:24.231Z,5.61
2022-11-29T14:47:02.991Z,5.61
2022-11-29T14:49:31.493Z,5.68
2022-11-29T14:52:08.448Z,5.68
2022-11-29T14:54:36.943Z,5.67
2022-11-29T14:57:48.404Z,5.60
2022-11-29T15:00:17.919Z,5.55
2022-11-29T15:02:50.192Z,5.46
2022-11-29T15:05:19.768Z,5.51
2022-11-29T15:07:57.047Z,5.60
2022-11-29T15:10:29.721Z,5.53
2022-11-29T15:12:59.603Z,5.56
2022-11-29T15:15:55.561Z,5.44
2022-11-29T15:18:35.244Z,5.34
2022-11-29T15:21:10.911Z,5.15
2022-11-29T15:23:42.621Z,5.21
2022-11-29T15:26:20.182Z,5.18
2022-11-29T15:28:47.067Z,5.13
2022-11-29T15:31:20.136Z,5.22
2022-11-29T15:33:49.295Z,5.28
2022-11-29T15:36:19.445Z,5.35
2022-11-29T15:38:47.579Z,5.16
2022-11-29T15:41:35.348Z,5.23
2022-11-29T15:44:04.778Z,5.08
2022-11-29T15:46:34.764Z,5.05
2022-11-29T15:49:24.343Z,5.04
2022-11-29T15:52:07.700Z,4.95
2022-11-29T15:54:42.523Z,4.87
2022-11-29T15:57:19.670Z,4.88
2022-11-29T15:59:54.492Z,5.08
2022-11-29T16:02:28.240Z,5.14
2022-11-29T16:04:59.779Z,5.17
2022-11-29T16:07:32.046Z,5.24
2022-11-29T16:10:03.835Z,5.14
2022-11-29T16:12:30.480Z,5.07
2022-11-29T16:14:59.681Z,4.83
2022-11-29T16:17:32.395Z,4.79
2022-11-29T16:20:25.531Z,4.82
2022-11-29T16:23:11.369Z,4.97
2022-11-29T16:26:05.633Z,4.97
2022-11-29T16:28:36.427Z,4.68
2022-11-29T16:31:04.953Z,4.94
2022-11-29T16:33:32.335Z,5.05
2022-11-29T16:36:16.278Z,5.04
2022-11-29T16:38:54.106Z,5.07
2022-11-29T16:41:23.245Z,5.22
2022-11-29T16:43:55.426Z,5.28
2022-11-29T16:46:22.202Z,5.32
2022-11-29T16:48:50.466Z,5.27
2022-11-29T16:51:25.768Z,5.26
2022-11-29T16:53:54.027Z,4.96
2022-11-29T16:56:23.829Z,4.89
2022-11-29T16:59:25.326Z,5.02
2022-11-29T17:01:41.294Z,5.14
2022-11-29T17:04:08.769Z,4.95
2022-11-29T17:06:35.691Z,4.88
2022-11-29T17:09:02.355Z,4.96
2022-11-29T17:11:28.942Z,4.92
2022-11-29T17:13:55.672Z,4.94
2022-11-29T17:16:23.912Z,4.94
2022-11-29T17:18:52.750Z,5.03
2022-11-29T17:21:21.962Z,5.06
2022-11-29T17:23:49.145Z,4.97
2022-11-29T17:26:16.151Z,4.95
2022-11-29T17:28:44.589Z,4.94
2022-11-29T17:31:12.975Z,4.90
2022-11-29T17:33:39.777Z,4.93
2022-11-29T17:36:12.709Z,4.94
2022-11-29T17:38:39.390Z,5.02
2022-11-29T17:41:10.342Z,4.94
2022-11-29T17:43:37.865Z,4.73
2022-11-29T17:46:09.447Z,4.63
2022-11-29T17:48:36.636Z,4.65
2022-11-29T17:51:06.918Z,4.70
2022-11-29T17:53:40.072Z,4.75
2022-11-29T17:56:18.017Z,4.78
2022-11-29T17:58:44.942Z,4.86
2022-11-29T18:01:16.810Z,4.88
2022-11-29T18:03:45.986Z,4.72
2022-11-29T18:06:13.815Z,4.75
2022-11-29T18:08:43.009Z,4.79
2022-11-29T18:11:12.879Z,4.73
2022-11-29T18:13:39.891Z,4.68
2022-11-29T18:16:09.562Z,4.74
2022-11-29T18:18:37.283Z,4.71
2022-11-29T18:21:06.176Z,4.64
2022-11-29T18:23:34.886Z,4.57
2022-11-29T18:26:04.639Z,4.42
2022-11-29T18:28:34.337Z,4.48
2022-11-29T18:31:10.326Z,4.22
2022-11-29T18:33:37.123Z,4.34
2022-11-29T18:36:05.675Z,4.11
2022-11-29T18:38:33.036Z,4.05
2022-11-29T18:41:06.581Z,4.24
2022-11-29T18:43:33.538Z,4.43
2022-11-29T18:46:08.452Z,4.31
2022-11-29T18:48:35.774Z,4.20
2022-11-29T18:51:05.119Z,4.17
2022-11-29T18:53:33.363Z,4.25
2022-11-29T18:56:08.288Z,4.35
2022-11-29T18:58:34.943Z,4.41
2022-11-29T19:01:04.919Z,4.35
2022-11-29T19:03:37.244Z,4.40
2022-11-29T19:06:10.070Z,4.47
2022-11-29T19:08:37.316Z,4.48
2022-11-29T19:11:12.278Z,4.42
2022-11-29T19:13:40.071Z,4.24
2022-11-29T19:16:13.040Z,4.53
2022-11-29T19:18:39.978Z,4.64
2022-11-29T19:21:12.411Z,4.65
2022-11-29T19:23:40.149Z,4.75
2022-11-29T19:26:11.953Z,4.67
2022-11-29T19:28:40.737Z,4.78
2022-11-29T19:31:07.960Z,4.85
2022-11-29T19:33:36.516Z,4.88
2022-11-29T19:36:08.827Z,4.83
2022-11-29T19:38:36.192Z,4.75
2022-11-29T19:41:13.986Z,4.79
2022-11-29T19:43:40.802Z,4.85
2022-11-29T19:46:12.211Z,4.68
2022-11-29T19:48:39.498Z,4.82
2022-11-29T19:51:07.677Z,4.88
2022-11-29T19:53:35.234Z,4.78
2022-11-29T19:56:11.233Z,4.79
2022-11-29T19:58:37.989Z,4.70
2022-11-29T20:01:07.738Z,4.62
2022-11-29T20:03:34.760Z,4.77
2022-11-29T20:06:02.379Z,4.63
2022-11-29T20:08:29.351Z,4.66
2022-11-29T20:10:56.258Z,4.65
2022-11-29T20:13:23.042Z,4.73
2022-11-29T20:15:49.799Z,4.76
2022-11-29T20:18:16.414Z,4.65
2022-11-29T20:20:43.065Z,4.69
2022-11-29T20:23:09.730Z,4.69
2022-11-29T20:25:36.739Z,4.68
2022-11-29T20:28:04.180Z,4.64
2022-11-29T20:30:30.882Z,4.70
2022-11-29T20:32:57.647Z,4.70
2022-11-29T20:35:24.546Z,4.66
2022-11-29T20:38:06.336Z,4.68
2022-11-29T20:40:57.070Z,4.63
2022-11-29T20:43:53.280Z,4.59
2022-11-29T20:46:20.341Z,4.62
2022-11-29T20:48:47.304Z,4.56
2022-11-29T20:51:15.355Z,4.46
2022-11-29T20:53:43.783Z,4.53
2022-11-29T20:56:11.500Z,4.55
2022-11-29T20:58:38.798Z,4.54
2022-11-29T21:01:07.341Z,4.63
2022-11-29T21:03:34.352Z,4.62
2022-11-29T21:06:02.906Z,4.60
2022-11-29T21:08:29.618Z,4.58
2022-11-29T21:11:02.689Z,4.57
2022-11-29T21:13:29.791Z,4.61
2022-11-29T21:15:56.886Z,4.61
2022-11-29T21:18:25.990Z,4.63
2022-11-29T21:21:03.000Z,4.56
2022-11-29T21:23:38.137Z,4.58
2022-11-29T21:26:16.504Z,4.56
2022-11-29T21:29:12.186Z,4.60
2022-11-29T21:31:39.166Z,4.57
2022-11-29T21:34:05.872Z,4.64
2022-11-29T21:36:32.535Z,4.55
2022-11-29T21:39:03.621Z,4.54
2022-11-29T21:41:31.743Z,4.56
2022-11-29T21:44:06.741Z,4.58
2022-11-29T21:46:34.658Z,4.51
2022-11-29T21:49:01.431Z,4.56
2022-11-29T21:51:28.080Z,4.42
2022-11-29T21:53:54.709Z,4.37
2022-11-29T21:56:21.461Z,4.40
2022-11-29T21:58:48.153Z,4.52
2022-11-29T22:01:17.931Z,4.47
2022-11-29T22:03:45.057Z,4.50
2022-11-29T22:06:15.129Z,4.40
2022-11-29T22:08:42.209Z,4.31
2022-11-29T22:11:11.887Z,4.49
2022-11-29T22:14:00.275Z,4.48
2022-11-29T22:16:27.243Z,4.53
2022-11-29T22:18:54.203Z,4.44
2022-11-29T22:21:21.098Z,4.45
2022-11-29T22:23:47.744Z,4.35
2022-11-29T22:26:14.546Z,4.49
2022-11-29T22:28:41.194Z,4.46
2022-11-29T22:31:10.513Z,4.44
2022-11-29T22:33:38.254Z,4.17
2022-11-29T22:36:10.765Z,4.22
2022-11-29T22:38:38.465Z,4.22
2022-11-29T22:41:10.304Z,4.33
2022-11-29T22:43:38.169Z,4.41
2022-11-29T22:46:04.814Z,4.47
2022-11-29T22:48:36.962Z,4.38
2022-11-29T22:51:14.009Z,4.34
2022-11-29T22:53:42.827Z,4.38
2022-11-29T22:56:11.369Z,4.42
2022-11-29T22:58:38.378Z,4.47
2022-11-29T23:01:24.815Z,4.51
2022-11-29T23:03:54.501Z,4.47
2022-11-29T23:06:26.647Z,4.40
2022-11-29T23:08:55.782Z,4.38
2022-11-29T23:11:25.584Z,4.53
2022-11-29T23:13:52.479Z,4.43
2022-11-29T23:16:22.169Z,4.33
2022-11-29T23:18:49.339Z,4.29
2022-11-29T23:21:27.858Z,4.29
2022-11-29T23:23:56.572Z,4.36
2022-11-29T23:26:25.209Z,4.47
2022-11-29T23:28:52.820Z,4.51
2022-11-29T23:31:19.687Z,4.50
2022-11-29T23:33:46.368Z,4.51
2022-11-29T23:36:13.697Z,4.35
2022-11-29T23:38:40.463Z,4.45
2022-11-29T23:41:08.303Z,4.43
2022-11-29T23:43:36.819Z,4.44
2022-11-29T23:46:32.919Z,4.44
2022-11-29T23:48:59.550Z,4.48
2022-11-29T23:51:26.179Z,4.50
2022-11-29T23:53:55.176Z,4.48
2022-11-29T23:56:22.503Z,4.47
2022-11-29T23:58:49.746Z,4.49
